sensor_id;sensor_type;location;lat;lon;timestamp;temperature;humidity
5280;DHT22;2663;53.588;10.010;2023-01-08T00:01:14;10.90;99.90
5280;DHT22;2663;53.588;10.010;2023-01-08T00:03:41;10.80;99.90
5280;DHT22;2663;53.588;10.010;2023-01-08T00:06:11;10.90;99.90
5280;DHT22;2663;53.588;10.010;2023-01-08T00:08:38;10.90;99.90
5280;DHT22;2663;53.588;10.010;2023-01-08T00:11:05;10.80;99.90
5280;DHT22;2663;53.588;10.010;2023-01-08T00:13:31;10.80;99.90
5280;DHT22;2663;53.588;10.010;2023-01-08T00:16:09;10.90;99.90
5280;DHT22;2663;53.588;10.010;2023-01-08T00:18:37;10.90;99.90
5280;DHT22;2663;53.588;10.010;2023-01-08T00:21:04;10.90;99.90
5280;DHT22;2663;53.588;10.010;2023-01-08T00:23:31;10.90;99.90
5280;DHT22;2663;53.588;10.010;2023-01-08T00:26:06;10.90;99.90
5280;DHT22;2663;53.588;10.010;2023-01-08T00:28:34;10.80;99.90
5280;DHT22;2663;53.588;10.010;2023-01-08T00:31:06;10.80;99.90
5280;DHT22;2663;53.588;10.010;2023-01-08T00:33:34;10.90;99.90
5280;DHT22;2663;53.588;10.010;2023-01-08T00:36:12;10.80;99.90
5280;DHT22;2663;53.588;10.010;2023-01-08T00:38:40;10.90;99.90
5280;DHT22;2663;53.588;10.010;2023-01-08T00:41:07;10.90;99.90
5280;DHT22;2663;53.588;10.010;2023-01-08T00:43:33;10.80;99.90
5280;DHT22;2663;53.588;10.010;2023-01-08T00:46:00;11.10;99.90
5280;DHT22;2663;53.588;10.010;2023-01-08T00:48:27;10.80;99.90
5280;DHT22;2663;53.588;10.010;2023-01-08T00:50:54;10.80;99.90
5280;DHT22;2663;53.588;10.010;2023-01-08T00:53:21;10.80;99.90
5280;DHT22;2663;53.588;10.010;2023-01-08T00:55:48;10.90;99.90
5280;DHT22;2663;53.588;10.010;2023-01-08T00:58:15;10.90;99.90
5280;DHT22;2663;53.588;10.010;2023-01-08T01:00:42;10.90;99.90
5280;DHT22;2663;53.588;10.010;2023-01-08T01:03:08;10.90;99.90
5280;DHT22;2663;53.588;10.010;2023-01-08T01:05:35;10.90;99.90
5280;DHT22;2663;53.588;10.010;2023-01-08T01:08:02;10.90;99.90
5280;DHT22;2663;53.588;10.010;2023-01-08T01:10:28;10.90;99.90
5280;DHT22;2663;53.588;10.010;2023-01-08T01:12:55;10.90;99.90
5280;DHT22;2663;53.588;10.010;2023-01-08T01:15:22;10.90;99.90
5280;DHT22;2663;53.588;10.010;2023-01-08T01:17:48;10.90;99.90
5280;DHT22;2663;53.588;10.010;2023-01-08T01:20:15;10.90;99.90
5280;DHT22;2663;53.588;10.010;2023-01-08T01:22:42;10.80;99.90
5280;DHT22;2663;53.588;10.010;2023-01-08T01:25:10;10.80;99.90
5280;DHT22;2663;53.588;10.010;2023-01-08T01:27:36;10.80;99.90
5280;DHT22;2663;53.588;10.010;2023-01-08T01:30:03;10.80;99.90
5280;DHT22;2663;53.588;10.010;2023-01-08T01:32:30;10.80;99.90
5280;DHT22;2663;53.588;10.010;2023-01-08T01:34:57;10.90;99.90
5280;DHT22;2663;53.588;10.010;2023-01-08T01:37:24;10.90;99.90
5280;DHT22;2663;53.588;10.010;2023-01-08T01:39:50;11.00;99.90
5280;DHT22;2663;53.588;10.010;2023-01-08T01:42:18;11.10;99.90
5280;DHT22;2663;53.588;10.010;2023-01-08T01:47:58;11.10;99.90
5280;DHT22;2663;53.588;10.010;2023-01-08T01:50:35;11.10;99.90
5280;DHT22;2663;53.588;10.010;2023-01-08T01:53:19;11.20;99.90
5280;DHT22;2663;53.588;10.010;2023-01-08T01:55:48;11.00;99.90
5280;DHT22;2663;53.588;10.010;2023-01-08T01:58:16;11.00;99.90
5280;DHT22;2663;53.588;10.010;2023-01-08T02:00:44;10.90;99.90
5280;DHT22;2663;53.588;10.010;2023-01-08T02:03:13;11.00;99.90
5280;DHT22;2663;53.588;10.010;2023-01-08T02:05:57;11.10;99.90
5280;DHT22;2663;53.588;10.010;2023-01-08T02:11:11;11.20;99.90
5280;DHT22;2663;53.588;10.010;2023-01-08T02:13:43;11.10;99.90
5280;DHT22;2663;53.588;10.010;2023-01-08T02:16:20;11.20;99.90
5280;DHT22;2663;53.588;10.010;2023-01-08T02:18:56;11.20;99.90
5280;DHT22;2663;53.588;10.010;2023-01-08T02:21:35;11.20;99.90
5280;DHT22;2663;53.588;10.010;2023-01-08T02:24:31;11.20;99.90
5280;DHT22;2663;53.588;10.010;2023-01-08T02:27:01;11.30;99.90
5280;DHT22;2663;53.588;10.010;2023-01-08T02:29:30;11.20;99.90
5280;DHT22;2663;53.588;10.010;2023-01-08T02:31:57;11.30;99.90
5280;DHT22;2663;53.588;10.010;2023-01-08T02:34:24;11.20;99.90
5280;DHT22;2663;53.588;10.010;2023-01-08T02:36:55;11.20;99.90
5280;DHT22;2663;53.588;10.010;2023-01-08T02:39:46;11.20;99.90
5280;DHT22;2663;53.588;10.010;2023-01-08T02:47:59;11.30;99.90
5280;DHT22;2663;53.588;10.010;2023-01-08T02:50:32;11.40;99.90
5280;DHT22;2663;53.588;10.010;2023-01-08T02:53:26;11.30;99.90
5280;DHT22;2663;53.588;10.010;2023-01-08T02:55:57;11.30;99.90
5280;DHT22;2663;53.588;10.010;2023-01-08T02:58:26;11.20;99.90
5280;DHT22;2663;53.588;10.010;2023-01-08T03:00:55;11.10;99.90
5280;DHT22;2663;53.588;10.010;2023-01-08T03:03:27;11.20;99.90
5280;DHT22;2663;53.588;10.010;2023-01-08T03:06:02;11.20;99.90
5280;DHT22;2663;53.588;10.010;2023-01-08T03:08:31;11.10;99.90
5280;DHT22;2663;53.588;10.010;2023-01-08T03:11:04;11.20;99.90
5280;DHT22;2663;53.588;10.010;2023-01-08T03:13:59;11.20;99.90
5280;DHT22;2663;53.588;10.010;2023-01-08T03:16:35;11.30;99.90
5280;DHT22;2663;53.588;10.010;2023-01-08T03:19:10;11.30;99.90
5280;DHT22;2663;53.588;10.010;2023-01-08T03:21:39;11.20;99.90
5280;DHT22;2663;53.588;10.010;2023-01-08T03:24:07;11.20;99.90
5280;DHT22;2663;53.588;10.010;2023-01-08T03:26:36;11.20;99.90
5280;DHT22;2663;53.588;10.010;2023-01-08T03:29:05;11.20;99.90
5280;DHT22;2663;53.588;10.010;2023-01-08T03:31:37;11.20;99.90
5280;DHT22;2663;53.588;10.010;2023-01-08T03:34:06;11.10;99.90
5280;DHT22;2663;53.588;10.010;2023-01-08T03:36:33;11.10;99.90
5280;DHT22;2663;53.588;10.010;2023-01-08T03:39:19;11.10;99.90
5280;DHT22;2663;53.588;10.010;2023-01-08T03:41:48;11.10;99.90
5280;DHT22;2663;53.588;10.010;2023-01-08T03:44:15;11.10;99.90
5280;DHT22;2663;53.588;10.010;2023-01-08T03:46:47;12.00;99.90
5280;DHT22;2663;53.588;10.010;2023-01-08T03:49:16;11.00;99.90
5280;DHT22;2663;53.588;10.010;2023-01-08T03:51:45;11.00;99.90
5280;DHT22;2663;53.588;10.010;2023-01-08T03:54:18;11.00;99.90
5280;DHT22;2663;53.588;10.010;2023-01-08T03:56:45;11.10;99.90
5280;DHT22;2663;53.588;10.010;2023-01-08T03:59:12;11.20;99.90
5280;DHT22;2663;53.588;10.010;2023-01-08T04:01:40;11.20;99.90
5280;DHT22;2663;53.588;10.010;2023-01-08T04:04:07;11.20;99.90
5280;DHT22;2663;53.588;10.010;2023-01-08T04:06:35;11.00;99.90
5280;DHT22;2663;53.588;10.010;2023-01-08T04:09:02;11.00;99.90
5280;DHT22;2663;53.588;10.010;2023-01-08T04:11:29;11.00;99.90
5280;DHT22;2663;53.588;10.010;2023-01-08T04:13:56;11.10;99.90
5280;DHT22;2663;53.588;10.010;2023-01-08T04:16:22;11.10;99.90
5280;DHT22;2663;53.588;10.010;2023-01-08T04:18:49;11.00;99.90
5280;DHT22;2663;53.588;10.010;2023-01-08T04:21:16;11.10;99.90
5280;DHT22;2663;53.588;10.010;2023-01-08T04:23:42;11.10;99.90
5280;DHT22;2663;53.588;10.010;2023-01-08T04:26:09;11.10;99.90
5280;DHT22;2663;53.588;10.010;2023-01-08T04:28:36;11.20;99.90
5280;DHT22;2663;53.588;10.010;2023-01-08T04:31:08;11.30;99.90
5280;DHT22;2663;53.588;10.010;2023-01-08T04:33:36;11.20;99.90
5280;DHT22;2663;53.588;10.010;2023-01-08T04:36:04;11.20;99.90
5280;DHT22;2663;53.588;10.010;2023-01-08T04:38:30;11.10;99.90
5280;DHT22;2663;53.588;10.010;2023-01-08T04:40:58;11.10;99.90
5280;DHT22;2663;53.588;10.010;2023-01-08T04:43:26;11.10;99.90
5280;DHT22;2663;53.588;10.010;2023-01-08T04:45:59;11.10;99.90
5280;DHT22;2663;53.588;10.010;2023-01-08T04:48:27;11.10;99.90
5280;DHT22;2663;53.588;10.010;2023-01-08T04:50:57;11.20;99.90
5280;DHT22;2663;53.588;10.010;2023-01-08T04:53:23;11.20;99.90
5280;DHT22;2663;53.588;10.010;2023-01-08T04:55:50;11.20;99.90
5280;DHT22;2663;53.588;10.010;2023-01-08T04:58:17;11.20;99.90
5280;DHT22;2663;53.588;10.010;2023-01-08T05:00:44;11.20;99.90
5280;DHT22;2663;53.588;10.010;2023-01-08T05:03:10;11.20;99.90
5280;DHT22;2663;53.588;10.010;2023-01-08T05:05:37;11.20;99.90
5280;DHT22;2663;53.588;10.010;2023-01-08T05:08:04;11.20;99.90
5280;DHT22;2663;53.588;10.010;2023-01-08T05:10:31;11.10;99.90
5280;DHT22;2663;53.588;10.010;2023-01-08T05:12:59;11.10;99.90
5280;DHT22;2663;53.588;10.010;2023-01-08T05:15:26;11.20;99.90
5280;DHT22;2663;53.588;10.010;2023-01-08T05:18:01;11.10;99.90
5280;DHT22;2663;53.588;10.010;2023-01-08T05:20:28;11.10;99.90
5280;DHT22;2663;53.588;10.010;2023-01-08T05:22:55;11.20;99.90
5280;DHT22;2663;53.588;10.010;2023-01-08T05:25:23;11.20;99.90
5280;DHT22;2663;53.588;10.010;2023-01-08T05:27:51;11.20;99.90
5280;DHT22;2663;53.588;10.010;2023-01-08T05:30:18;11.30;99.90
5280;DHT22;2663;53.588;10.010;2023-01-08T05:32:45;11.30;99.90
5280;DHT22;2663;53.588;10.010;2023-01-08T05:35:11;12.50;99.90
5280;DHT22;2663;53.588;10.010;2023-01-08T05:37:38;11.20;99.90
5280;DHT22;2663;53.588;10.010;2023-01-08T05:40:05;11.20;99.90
5280;DHT22;2663;53.588;10.010;2023-01-08T05:42:36;11.30;99.90
5280;DHT22;2663;53.588;10.010;2023-01-08T05:45:04;11.20;99.90
5280;DHT22;2663;53.588;10.010;2023-01-08T05:47:32;11.20;99.90
5280;DHT22;2663;53.588;10.010;2023-01-08T05:49:59;11.30;99.90
5280;DHT22;2663;53.588;10.010;2023-01-08T05:52:26;11.20;99.90
5280;DHT22;2663;53.588;10.010;2023-01-08T05:54:53;11.20;99.90
5280;DHT22;2663;53.588;10.010;2023-01-08T05:57:20;11.30;99.90
5280;DHT22;2663;53.588;10.010;2023-01-08T05:59:46;11.30;99.90
5280;DHT22;2663;53.588;10.010;2023-01-08T06:02:13;11.30;99.90
5280;DHT22;2663;53.588;10.010;2023-01-08T06:04:40;11.40;99.90
5280;DHT22;2663;53.588;10.010;2023-01-08T06:07:06;11.30;99.90
5280;DHT22;2663;53.588;10.010;2023-01-08T06:09:33;11.30;99.90
5280;DHT22;2663;53.588;10.010;2023-01-08T06:12:00;11.30;99.90
5280;DHT22;2663;53.588;10.010;2023-01-08T06:14:26;11.30;99.90
5280;DHT22;2663;53.588;10.010;2023-01-08T06:16:53;11.30;99.90
5280;DHT22;2663;53.588;10.010;2023-01-08T06:19:20;11.30;99.90
5280;DHT22;2663;53.588;10.010;2023-01-08T06:21:46;11.30;99.90
5280;DHT22;2663;53.588;10.010;2023-01-08T06:24:13;11.30;99.90
5280;DHT22;2663;53.588;10.010;2023-01-08T06:26:40;11.30;99.90
5280;DHT22;2663;53.588;10.010;2023-01-08T06:29:06;11.30;99.90
5280;DHT22;2663;53.588;10.010;2023-01-08T06:31:33;11.30;99.90
5280;DHT22;2663;53.588;10.010;2023-01-08T06:34:01;11.20;99.90
5280;DHT22;2663;53.588;10.010;2023-01-08T06:36:28;11.20;99.90
5280;DHT22;2663;53.588;10.010;2023-01-08T06:38:54;11.20;99.90
5280;DHT22;2663;53.588;10.010;2023-01-08T06:41:21;11.10;99.90
5280;DHT22;2663;53.588;10.010;2023-01-08T06:43:48;11.20;99.90
5280;DHT22;2663;53.588;10.010;2023-01-08T06:46:14;11.20;99.90
5280;DHT22;2663;53.588;10.010;2023-01-08T06:48:41;11.20;99.90
5280;DHT22;2663;53.588;10.010;2023-01-08T06:51:08;11.20;99.90
5280;DHT22;2663;53.588;10.010;2023-01-08T06:53:34;11.20;99.90
5280;DHT22;2663;53.588;10.010;2023-01-08T06:56:02;11.20;99.90
5280;DHT22;2663;53.588;10.010;2023-01-08T06:58:29;11.20;99.90
5280;DHT22;2663;53.588;10.010;2023-01-08T07:00:56;11.20;99.90
5280;DHT22;2663;53.588;10.010;2023-01-08T07:03:25;9.90;99.90
5280;DHT22;2663;53.588;10.010;2023-01-08T07:05:53;11.20;99.90
5280;DHT22;2663;53.588;10.010;2023-01-08T07:08:20;11.30;99.90
5280;DHT22;2663;53.588;10.010;2023-01-08T07:10:46;11.20;99.90
5280;DHT22;2663;53.588;10.010;2023-01-08T07:13:13;11.20;99.90
5280;DHT22;2663;53.588;10.010;2023-01-08T07:15:41;11.20;99.90
5280;DHT22;2663;53.588;10.010;2023-01-08T07:18:10;11.10;99.90
5280;DHT22;2663;53.588;10.010;2023-01-08T07:20:37;11.10;99.90
5280;DHT22;2663;53.588;10.010;2023-01-08T07:23:09;11.10;99.90
5280;DHT22;2663;53.588;10.010;2023-01-08T07:25:36;12.00;99.90
5280;DHT22;2663;53.588;10.010;2023-01-08T07:28:02;12.90;99.90
5280;DHT22;2663;53.588;10.010;2023-01-08T07:30:29;13.50;99.90
5280;DHT22;2663;53.588;10.010;2023-01-08T07:33:00;13.80;99.90
5280;DHT22;2663;53.588;10.010;2023-01-08T07:35:27;14.00;99.90
5280;DHT22;2663;53.588;10.010;2023-01-08T07:37:55;13.90;99.90
5280;DHT22;2663;53.588;10.010;2023-01-08T07:40:22;13.30;99.90
5280;DHT22;2663;53.588;10.010;2023-01-08T07:42:57;12.80;99.90
5280;DHT22;2663;53.588;10.010;2023-01-08T07:45:24;12.40;99.90
5280;DHT22;2663;53.588;10.010;2023-01-08T07:47:50;12.10;99.90
5280;DHT22;2663;53.588;10.010;2023-01-08T07:50:17;12.00;99.90
5280;DHT22;2663;53.588;10.010;2023-01-08T07:52:44;11.80;99.90
5280;DHT22;2663;53.588;10.010;2023-01-08T07:55:10;11.70;99.90
5280;DHT22;2663;53.588;10.010;2023-01-08T07:57:37;11.70;99.90
5280;DHT22;2663;53.588;10.010;2023-01-08T08:00:04;11.50;99.90
5280;DHT22;2663;53.588;10.010;2023-01-08T08:02:31;11.40;99.90
5280;DHT22;2663;53.588;10.010;2023-01-08T08:04:59;11.40;99.90
5280;DHT22;2663;53.588;10.010;2023-01-08T08:07:25;11.50;99.90
5280;DHT22;2663;53.588;10.010;2023-01-08T08:09:52;11.50;99.90
5280;DHT22;2663;53.588;10.010;2023-01-08T08:12:19;11.40;99.90
5280;DHT22;2663;53.588;10.010;2023-01-08T08:14:45;11.40;99.90
5280;DHT22;2663;53.588;10.010;2023-01-08T08:17:12;11.40;99.90
5280;DHT22;2663;53.588;10.010;2023-01-08T08:19:39;11.50;99.90
5280;DHT22;2663;53.588;10.010;2023-01-08T08:22:09;11.50;99.90
5280;DHT22;2663;53.588;10.010;2023-01-08T08:24:35;11.40;99.90
5280;DHT22;2663;53.588;10.010;2023-01-08T08:27:02;11.40;99.90
5280;DHT22;2663;53.588;10.010;2023-01-08T08:29:29;11.30;99.90
5280;DHT22;2663;53.588;10.010;2023-01-08T08:31:56;11.30;99.90
5280;DHT22;2663;53.588;10.010;2023-01-08T08:34:23;11.30;99.90
5280;DHT22;2663;53.588;10.010;2023-01-08T08:36:49;11.20;99.90
5280;DHT22;2663;53.588;10.010;2023-01-08T08:39:16;11.10;99.90
5280;DHT22;2663;53.588;10.010;2023-01-08T08:41:43;11.20;99.90
5280;DHT22;2663;53.588;10.010;2023-01-08T08:44:09;11.20;99.90
5280;DHT22;2663;53.588;10.010;2023-01-08T08:46:36;10.60;99.90
5280;DHT22;2663;53.588;10.010;2023-01-08T08:49:03;11.20;99.90
5280;DHT22;2663;53.588;10.010;2023-01-08T08:51:29;11.20;99.90
5280;DHT22;2663;53.588;10.010;2023-01-08T08:53:56;11.40;99.90
5280;DHT22;2663;53.588;10.010;2023-01-08T08:56:23;11.70;99.90
5280;DHT22;2663;53.588;10.010;2023-01-08T08:58:49;11.70;99.90
5280;DHT22;2663;53.588;10.010;2023-01-08T09:01:17;11.60;99.90
5280;DHT22;2663;53.588;10.010;2023-01-08T09:03:44;11.60;99.90
5280;DHT22;2663;53.588;10.010;2023-01-08T09:06:14;11.40;99.90
5280;DHT22;2663;53.588;10.010;2023-01-08T09:08:40;11.20;99.90
5280;DHT22;2663;53.588;10.010;2023-01-08T09:11:07;11.10;99.90
5280;DHT22;2663;53.588;10.010;2023-01-08T09:13:36;10.90;99.90
5280;DHT22;2663;53.588;10.010;2023-01-08T09:16:03;11.00;99.90
5280;DHT22;2663;53.588;10.010;2023-01-08T09:18:30;11.10;99.90
5280;DHT22;2663;53.588;10.010;2023-01-08T09:20:57;10.90;99.90
5280;DHT22;2663;53.588;10.010;2023-01-08T09:23:24;11.00;99.90
5280;DHT22;2663;53.588;10.010;2023-01-08T09:26:00;11.00;99.90
5280;DHT22;2663;53.588;10.010;2023-01-08T09:28:28;11.00;99.90
5280;DHT22;2663;53.588;10.010;2023-01-08T09:30:54;11.00;99.90
5280;DHT22;2663;53.588;10.010;2023-01-08T09:33:21;11.00;99.90
5280;DHT22;2663;53.588;10.010;2023-01-08T09:35:48;11.00;99.90
5280;DHT22;2663;53.588;10.010;2023-01-08T09:38:14;10.90;99.90
5280;DHT22;2663;53.588;10.010;2023-01-08T09:41:05;10.90;99.90
5280;DHT22;2663;53.588;10.010;2023-01-08T09:43:36;10.90;99.90
5280;DHT22;2663;53.588;10.010;2023-01-08T09:46:05;10.90;99.90
5280;DHT22;2663;53.588;10.010;2023-01-08T09:48:39;10.90;99.90
5280;DHT22;2663;53.588;10.010;2023-01-08T09:51:14;10.80;99.90
5280;DHT22;2663;53.588;10.010;2023-01-08T09:53:42;10.80;99.90
5280;DHT22;2663;53.588;10.010;2023-01-08T09:56:14;10.90;99.90
5280;DHT22;2663;53.588;10.010;2023-01-08T09:58:57;11.00;99.90
5280;DHT22;2663;53.588;10.010;2023-01-08T10:01:27;10.90;99.90
5280;DHT22;2663;53.588;10.010;2023-01-08T10:04:09;11.00;99.90
5280;DHT22;2663;53.588;10.010;2023-01-08T10:06:37;11.00;99.90
5280;DHT22;2663;53.588;10.010;2023-01-08T10:09:05;11.00;99.90
5280;DHT22;2663;53.588;10.010;2023-01-08T10:11:41;11.00;99.90
5280;DHT22;2663;53.588;10.010;2023-01-08T10:14:27;11.00;99.90
5280;DHT22;2663;53.588;10.010;2023-01-08T10:17:02;11.00;99.90
5280;DHT22;2663;53.588;10.010;2023-01-08T10:19:34;11.00;99.90
5280;DHT22;2663;53.588;10.010;2023-01-08T10:22:01;11.00;99.90
5280;DHT22;2663;53.588;10.010;2023-01-08T10:24:33;11.00;99.90
5280;DHT22;2663;53.588;10.010;2023-01-08T10:27:27;11.10;99.90
5280;DHT22;2663;53.588;10.010;2023-01-08T10:30:04;11.20;99.90
5280;DHT22;2663;53.588;10.010;2023-01-08T10:32:33;11.10;99.90
5280;DHT22;2663;53.588;10.010;2023-01-08T10:35:04;11.20;99.90
5280;DHT22;2663;53.588;10.010;2023-01-08T10:37:40;11.10;99.90
5280;DHT22;2663;53.588;10.010;2023-01-08T10:40:44;11.00;99.90
5280;DHT22;2663;53.588;10.010;2023-01-08T10:43:14;11.10;99.90
5280;DHT22;2663;53.588;10.010;2023-01-08T10:45:43;11.20;99.90
5280;DHT22;2663;53.588;10.010;2023-01-08T10:48:20;11.10;99.90
5280;DHT22;2663;53.588;10.010;2023-01-08T10:50:46;11.10;99.90
5280;DHT22;2663;53.588;10.010;2023-01-08T10:53:24;11.00;99.90
5280;DHT22;2663;53.588;10.010;2023-01-08T10:55:58;11.00;99.90
5280;DHT22;2663;53.588;10.010;2023-01-08T10:58:27;11.10;99.90
5280;DHT22;2663;53.588;10.010;2023-01-08T11:00:54;11.10;99.90
5280;DHT22;2663;53.588;10.010;2023-01-08T11:03:28;11.20;99.90
5280;DHT22;2663;53.588;10.010;2023-01-08T11:05:56;11.20;99.90
5280;DHT22;2663;53.588;10.010;2023-01-08T11:08:23;11.20;99.90
5280;DHT22;2663;53.588;10.010;2023-01-08T11:10:55;11.20;99.90
5280;DHT22;2663;53.588;10.010;2023-01-08T11:13:24;11.20;99.90
5280;DHT22;2663;53.588;10.010;2023-01-08T11:16:06;11.20;99.90
5280;DHT22;2663;53.588;10.010;2023-01-08T11:18:45;11.00;99.90
5280;DHT22;2663;53.588;10.010;2023-01-08T11:21:19;11.10;99.90
5280;DHT22;2663;53.588;10.010;2023-01-08T11:24:13;11.20;99.90
5280;DHT22;2663;53.588;10.010;2023-01-08T11:26:45;11.20;99.90
5280;DHT22;2663;53.588;10.010;2023-01-08T11:29:17;11.20;99.90
5280;DHT22;2663;53.588;10.010;2023-01-08T11:31:55;11.20;99.90
5280;DHT22;2663;53.588;10.010;2023-01-08T11:34:58;11.30;99.90
5280;DHT22;2663;53.588;10.010;2023-01-08T11:37:27;11.30;99.90
5280;DHT22;2663;53.588;10.010;2023-01-08T11:39:56;11.30;99.90
5280;DHT22;2663;53.588;10.010;2023-01-08T11:50:30;11.50;99.90
5280;DHT22;2663;53.588;10.010;2023-01-08T11:53:29;11.60;99.90
5280;DHT22;2663;53.588;10.010;2023-01-08T11:59:05;11.60;99.90
5280;DHT22;2663;53.588;10.010;2023-01-08T12:07:18;11.70;99.90
5280;DHT22;2663;53.588;10.010;2023-01-08T12:09:49;11.60;99.90
5280;DHT22;2663;53.588;10.010;2023-01-08T12:21:05;11.30;99.90
5280;DHT22;2663;53.588;10.010;2023-01-08T12:24:14;10.40;99.90
5280;DHT22;2663;53.588;10.010;2023-01-08T12:27:23;11.30;99.90
5280;DHT22;2663;53.588;10.010;2023-01-08T12:33:14;11.40;99.90
5280;DHT22;2663;53.588;10.010;2023-01-08T12:35:51;11.40;99.90
5280;DHT22;2663;53.588;10.010;2023-01-08T12:38:32;11.40;99.90
5280;DHT22;2663;53.588;10.010;2023-01-08T12:41:07;11.50;99.90
5280;DHT22;2663;53.588;10.010;2023-01-08T12:44:04;11.50;99.90
5280;DHT22;2663;53.588;10.010;2023-01-08T12:46:42;11.60;99.90
5280;DHT22;2663;53.588;10.010;2023-01-08T12:49:15;11.70;99.90
5280;DHT22;2663;53.588;10.010;2023-01-08T12:52:01;11.80;99.90
5280;DHT22;2663;53.588;10.010;2023-01-08T12:54:38;11.90;99.90
5280;DHT22;2663;53.588;10.010;2023-01-08T12:57:31;12.00;99.90
5280;DHT22;2663;53.588;10.010;2023-01-08T13:07:51;11.80;99.90
5280;DHT22;2663;53.588;10.010;2023-01-08T13:10:28;11.70;99.90
5280;DHT22;2663;53.588;10.010;2023-01-08T13:12:58;11.70;99.90
5280;DHT22;2663;53.588;10.010;2023-01-08T13:15:29;11.90;99.90
5280;DHT22;2663;53.588;10.010;2023-01-08T13:18:01;12.00;99.90
5280;DHT22;2663;53.588;10.010;2023-01-08T13:20:31;12.00;99.90
5280;DHT22;2663;53.588;10.010;2023-01-08T13:23:00;12.10;99.90
5280;DHT22;2663;53.588;10.010;2023-01-08T13:25:28;12.10;99.90
5280;DHT22;2663;53.588;10.010;2023-01-08T13:27:56;12.10;99.90
5280;DHT22;2663;53.588;10.010;2023-01-08T13:30:38;12.10;99.90
5280;DHT22;2663;53.588;10.010;2023-01-08T13:44:30;12.10;99.90
5280;DHT22;2663;53.588;10.010;2023-01-08T13:47:02;12.10;99.90
5280;DHT22;2663;53.588;10.010;2023-01-08T13:49:41;12.20;99.90
5280;DHT22;2663;53.588;10.010;2023-01-08T13:52:29;12.10;99.90
5280;DHT22;2663;53.588;10.010;2023-01-08T13:54:56;12.10;99.90
5280;DHT22;2663;53.588;10.010;2023-01-08T13:57:23;12.00;99.90
5280;DHT22;2663;53.588;10.010;2023-01-08T13:59:55;12.00;99.90
5280;DHT22;2663;53.588;10.010;2023-01-08T14:02:27;11.90;99.90
5280;DHT22;2663;53.588;10.010;2023-01-08T14:04:56;11.90;99.90
5280;DHT22;2663;53.588;10.010;2023-01-08T14:07:24;11.90;99.90
5280;DHT22;2663;53.588;10.010;2023-01-08T14:09:51;11.80;99.90
5280;DHT22;2663;53.588;10.010;2023-01-08T14:12:20;11.90;99.90
5280;DHT22;2663;53.588;10.010;2023-01-08T14:14:50;11.80;99.90
5280;DHT22;2663;53.588;10.010;2023-01-08T14:17:21;11.80;99.90
5280;DHT22;2663;53.588;10.010;2023-01-08T14:19:48;11.80;99.90
5280;DHT22;2663;53.588;10.010;2023-01-08T14:22:31;11.80;99.90
5280;DHT22;2663;53.588;10.010;2023-01-08T14:25:07;11.80;99.90
5280;DHT22;2663;53.588;10.010;2023-01-08T14:27:34;11.70;99.90
5280;DHT22;2663;53.588;10.010;2023-01-08T14:30:01;11.70;99.90
5280;DHT22;2663;53.588;10.010;2023-01-08T14:32:42;11.60;99.90
5280;DHT22;2663;53.588;10.010;2023-01-08T14:35:15;11.60;99.90
5280;DHT22;2663;53.588;10.010;2023-01-08T14:37:43;11.50;99.90
5280;DHT22;2663;53.588;10.010;2023-01-08T14:40:14;11.30;99.90
5280;DHT22;2663;53.588;10.010;2023-01-08T14:42:43;11.20;99.90
5280;DHT22;2663;53.588;10.010;2023-01-08T14:47:43;11.10;99.90
5280;DHT22;2663;53.588;10.010;2023-01-08T14:50:29;11.10;99.90
5280;DHT22;2663;53.588;10.010;2023-01-08T14:52:59;11.10;99.90
5280;DHT22;2663;53.588;10.010;2023-01-08T14:55:31;11.30;99.90
5280;DHT22;2663;53.588;10.010;2023-01-08T14:58:00;11.30;99.90
5280;DHT22;2663;53.588;10.010;2023-01-08T15:00:29;11.50;99.90
5280;DHT22;2663;53.588;10.010;2023-01-08T15:02:56;11.30;99.90
5280;DHT22;2663;53.588;10.010;2023-01-08T15:05:27;11.30;99.90
5280;DHT22;2663;53.588;10.010;2023-01-08T15:08:22;11.20;99.90
5280;DHT22;2663;53.588;10.010;2023-01-08T15:10:58;11.30;99.90
5280;DHT22;2663;53.588;10.010;2023-01-08T15:13:30;11.30;99.90
5280;DHT22;2663;53.588;10.010;2023-01-08T15:16:09;11.20;99.90
5280;DHT22;2663;53.588;10.010;2023-01-08T15:18:43;11.30;99.90
5280;DHT22;2663;53.588;10.010;2023-01-08T15:21:16;11.30;99.90
5280;DHT22;2663;53.588;10.010;2023-01-08T15:23:47;11.30;99.90
5280;DHT22;2663;53.588;10.010;2023-01-08T15:26:15;11.30;99.90
5280;DHT22;2663;53.588;10.010;2023-01-08T15:28:55;11.10;99.90
5280;DHT22;2663;53.588;10.010;2023-01-08T15:31:31;11.10;99.90
5280;DHT22;2663;53.588;10.010;2023-01-08T15:33:59;11.10;99.90
5280;DHT22;2663;53.588;10.010;2023-01-08T15:36:26;11.10;99.90
5280;DHT22;2663;53.588;10.010;2023-01-08T15:38:53;11.10;99.90
5280;DHT22;2663;53.588;10.010;2023-01-08T15:41:21;11.10;99.90
5280;DHT22;2663;53.588;10.010;2023-01-08T15:44:10;11.00;99.90
5280;DHT22;2663;53.588;10.010;2023-01-08T15:46:40;10.90;99.90
5280;DHT22;2663;53.588;10.010;2023-01-08T15:49:07;10.90;99.90
5280;DHT22;2663;53.588;10.010;2023-01-08T15:51:34;10.80;99.90
5280;DHT22;2663;53.588;10.010;2023-01-08T15:54:02;10.80;99.90
5280;DHT22;2663;53.588;10.010;2023-01-08T15:56:29;10.70;99.90
5280;DHT22;2663;53.588;10.010;2023-01-08T15:58:56;10.50;99.90
5280;DHT22;2663;53.588;10.010;2023-01-08T16:01:22;10.70;99.90
5280;DHT22;2663;53.588;10.010;2023-01-08T16:03:51;10.70;99.90
5280;DHT22;2663;53.588;10.010;2023-01-08T16:06:17;10.70;99.90
5280;DHT22;2663;53.588;10.010;2023-01-08T16:08:44;10.50;99.90
5280;DHT22;2663;53.588;10.010;2023-01-08T16:11:12;11.80;99.90
5280;DHT22;2663;53.588;10.010;2023-01-08T16:13:39;10.70;99.90
5280;DHT22;2663;53.588;10.010;2023-01-08T16:16:09;9.80;99.90
5280;DHT22;2663;53.588;10.010;2023-01-08T16:18:37;10.70;99.90
5280;DHT22;2663;53.588;10.010;2023-01-08T16:21:04;10.70;99.90
5280;DHT22;2663;53.588;10.010;2023-01-08T16:23:38;10.70;99.90
5280;DHT22;2663;53.588;10.010;2023-01-08T16:26:11;10.70;99.90
5280;DHT22;2663;53.588;10.010;2023-01-08T16:28:38;10.60;99.90
5280;DHT22;2663;53.588;10.010;2023-01-08T16:31:05;10.70;99.90
5280;DHT22;2663;53.588;10.010;2023-01-08T16:33:32;10.70;99.90
5280;DHT22;2663;53.588;10.010;2023-01-08T16:36:01;10.60;99.90
5280;DHT22;2663;53.588;10.010;2023-01-08T16:38:28;10.60;99.90
5280;DHT22;2663;53.588;10.010;2023-01-08T16:40:56;10.60;99.90
5280;DHT22;2663;53.588;10.010;2023-01-08T16:43:24;10.60;99.90
5280;DHT22;2663;53.588;10.010;2023-01-08T16:45:51;10.60;99.90
5280;DHT22;2663;53.588;10.010;2023-01-08T16:48:19;10.50;99.90
5280;DHT22;2663;53.588;10.010;2023-01-08T16:50:46;10.60;99.90
5280;DHT22;2663;53.588;10.010;2023-01-08T16:53:14;10.60;99.90
5280;DHT22;2663;53.588;10.010;2023-01-08T16:55:42;10.60;99.90
5280;DHT22;2663;53.588;10.010;2023-01-08T16:58:09;10.60;99.90
5280;DHT22;2663;53.588;10.010;2023-01-08T17:00:37;10.50;99.90
5280;DHT22;2663;53.588;10.010;2023-01-08T17:03:04;10.50;99.90
5280;DHT22;2663;53.588;10.010;2023-01-08T17:05:31;10.50;99.90
5280;DHT22;2663;53.588;10.010;2023-01-08T17:07:58;10.50;99.90
5280;DHT22;2663;53.588;10.010;2023-01-08T17:10:25;10.50;99.90